SIA36 WSSS-KLAX
Flight info
| Callsign | SIA36 |
|---|---|
| Flight time | N/A |
| Altitude | 32000 |
| Route | TOMAN1C TOMAN L625 AKMON/K0954F320 L625 ANOKI/N0513F320 L625 AVMUP/N0501F350 L625 MEVIN B462 KAZIK Y59 AZAMA Y57 DOMBI/N0487F370 Y57 LIGNI Y818 DOLBA Y824 SMOLT OTR15 MORAY DCT 34N150E 36N160E 38N170E 39N180E/N0483F390 38N170W 39N160W 40N150W 40N140W/N0477F410 39N130W DCT DACEM DCT PAINT DCT PIRAT DCT BURGL IRNMN2 |
| Aircraft | A359/H-SDE2E3GHIJ3J4J5LM1ORWXY/LB1D1 |
Departure
| Time | N/A |
|---|---|
| Airport | Singapore Changi Airport (WSSS) |
Arrival
| Time | 2026-05-06 19:50 |
|---|---|
| Airport | Los Angeles International Airport (KLAX) |
| Time | Latitude | Longitude | Altitude | Speed | Heading |
|---|---|---|---|---|---|
| 2026-05-06 18:58 | 37.03587 | -122.46413 | 32210 ft | 489 kts | 121° |
| 2026-05-06 18:58 | 36.99680 | -122.39461 | 32206 ft | 489 kts | 121° |
| 2026-05-06 18:59 | 36.95762 | -122.32500 | 32213 ft | 488 kts | 121° |
| 2026-05-06 18:59 | 36.91844 | -122.25553 | 32206 ft | 489 kts | 121° |
| 2026-05-06 19:00 | 36.87920 | -122.18608 | 32215 ft | 489 kts | 121° |
| 2026-05-06 19:00 | 36.84022 | -122.11725 | 32215 ft | 488 kts | 121° |
| 2026-05-06 19:01 | 36.80103 | -122.04819 | 32213 ft | 488 kts | 121° |
| 2026-05-06 19:01 | 36.76171 | -121.97904 | 32212 ft | 488 kts | 121° |
| 2026-05-06 19:02 | 36.72244 | -121.91010 | 32208 ft | 487 kts | 121° |
| 2026-05-06 19:02 | 36.68313 | -121.84125 | 32182 ft | 487 kts | 121° |
| 2026-05-06 19:03 | 36.64378 | -121.77248 | 32186 ft | 487 kts | 121° |
| 2026-05-06 19:03 | 36.61107 | -121.71542 | 32183 ft | 487 kts | 121° |
| 2026-05-06 19:04 | 36.57172 | -121.64689 | 32175 ft | 486 kts | 121° |
| 2026-05-06 19:04 | 36.52595 | -121.56734 | 32193 ft | 486 kts | 121° |
| 2026-05-06 19:05 | 36.49290 | -121.51003 | 32203 ft | 486 kts | 121° |
| 2026-05-06 19:05 | 36.45374 | -121.44224 | 32192 ft | 486 kts | 121° |
| 2026-05-06 19:06 | 36.41431 | -121.37411 | 32191 ft | 485 kts | 121° |
| 2026-05-06 19:06 | 36.37484 | -121.30607 | 32194 ft | 485 kts | 121° |
| 2026-05-06 19:07 | 36.33534 | -121.23810 | 32193 ft | 485 kts | 121° |
| 2026-05-06 19:07 | 36.29580 | -121.17019 | 32185 ft | 486 kts | 121° |
| 2026-05-06 19:08 | 36.25623 | -121.10238 | 32182 ft | 486 kts | 121° |
| 2026-05-06 19:08 | 36.21664 | -121.03463 | 32175 ft | 486 kts | 121° |
| 2026-05-06 19:09 | 36.17700 | -120.96696 | 32180 ft | 485 kts | 121° |
| 2026-05-06 19:09 | 36.13730 | -120.89933 | 32190 ft | 486 kts | 121° |
| 2026-05-06 19:10 | 36.09755 | -120.83173 | 32173 ft | 486 kts | 121° |
| 2026-05-06 19:10 | 36.05778 | -120.76424 | 32194 ft | 486 kts | 121° |
| 2026-05-06 19:11 | 36.01798 | -120.69682 | 32199 ft | 485 kts | 121° |
| 2026-05-06 19:11 | 35.97816 | -120.62952 | 32199 ft | 485 kts | 121° |
| 2026-05-06 19:12 | 35.93832 | -120.56229 | 32183 ft | 485 kts | 121° |
| 2026-05-06 19:12 | 35.89839 | -120.49507 | 32199 ft | 485 kts | 121° |
| 2026-05-06 19:13 | 35.85875 | -120.42844 | 32187 ft | 484 kts | 121° |
| 2026-05-06 19:13 | 35.81889 | -120.36158 | 32191 ft | 485 kts | 121° |
| 2026-05-06 19:14 | 35.77892 | -120.29466 | 32189 ft | 485 kts | 121° |
| 2026-05-06 19:14 | 35.73890 | -120.22777 | 32191 ft | 485 kts | 121° |
| 2026-05-06 19:15 | 35.69889 | -120.16108 | 32187 ft | 484 kts | 121° |
| 2026-05-06 19:15 | 35.65326 | -120.09951 | 32190 ft | 494 kts | 136° |
| 2026-05-06 19:16 | 35.59539 | -120.05285 | 32188 ft | 499 kts | 144° |
| 2026-05-06 19:16 | 35.53612 | -120.00856 | 32180 ft | 498 kts | 143° |
| 2026-05-06 19:17 | 35.47706 | -119.96428 | 32177 ft | 497 kts | 143° |
| 2026-05-06 19:17 | 35.41807 | -119.92001 | 32173 ft | 497 kts | 143° |
| 2026-05-06 19:18 | 35.35903 | -119.87577 | 32171 ft | 497 kts | 143° |
| 2026-05-06 19:18 | 35.30010 | -119.83156 | 32172 ft | 496 kts | 143° |
| 2026-05-06 19:19 | 35.24465 | -119.78209 | 32161 ft | 493 kts | 137° |
| 2026-05-06 19:19 | 35.19020 | -119.73102 | 32160 ft | 493 kts | 137° |
| 2026-05-06 19:20 | 35.13569 | -119.68010 | 32159 ft | 493 kts | 137° |
| 2026-05-06 19:20 | 35.08117 | -119.62930 | 32153 ft | 493 kts | 137° |
| 2026-05-06 19:21 | 35.02727 | -119.57920 | 31712 ft | 484 kts | 137° |
| 2026-05-06 19:21 | 35.00038 | -119.55421 | 30715 ft | 489 kts | 137° |
| 2026-05-06 19:21 | 34.97312 | -119.52889 | 29527 ft | 496 kts | 137° |
| 2026-05-06 19:21 | 34.94548 | -119.50328 | 28308 ft | 501 kts | 138° |
| 2026-05-06 19:22 | 34.91769 | -119.47759 | 27302 ft | 502 kts | 138° |
| 2026-05-06 19:22 | 34.88976 | -119.45213 | 26506 ft | 499 kts | 139° |
| 2026-05-06 19:22 | 34.86203 | -119.42748 | 26222 ft | 486 kts | 139° |
| 2026-05-06 19:22 | 34.83522 | -119.40370 | 26086 ft | 469 kts | 139° |
| 2026-05-06 19:23 | 34.80936 | -119.38069 | 25957 ft | 453 kts | 138° |
| 2026-05-06 19:23 | 34.78435 | -119.35839 | 25769 ft | 439 kts | 138° |
| 2026-05-06 19:23 | 34.76007 | -119.33671 | 25575 ft | 426 kts | 138° |
| 2026-05-06 19:23 | 34.73628 | -119.31548 | 25065 ft | 423 kts | 138° |
| 2026-05-06 19:24 | 34.71242 | -119.29450 | 24497 ft | 422 kts | 139° |
| 2026-05-06 19:24 | 34.68856 | -119.27368 | 23967 ft | 420 kts | 139° |
| 2026-05-06 19:24 | 34.66520 | -119.25331 | 23434 ft | 418 kts | 139° |
| 2026-05-06 19:24 | 34.64168 | -119.23285 | 22881 ft | 414 kts | 139° |
| 2026-05-06 19:25 | 34.61828 | -119.21270 | 22386 ft | 409 kts | 139° |
| 2026-05-06 19:25 | 34.59516 | -119.19279 | 21878 ft | 406 kts | 139° |
| 2026-05-06 19:25 | 34.57219 | -119.17301 | 21375 ft | 402 kts | 139° |
| 2026-05-06 19:25 | 34.54951 | -119.15344 | 20889 ft | 398 kts | 139° |
| 2026-05-06 19:26 | 34.52725 | -119.13373 | 20397 ft | 394 kts | 138° |
| 2026-05-06 19:26 | 34.50529 | -119.11416 | 19910 ft | 390 kts | 138° |
| 2026-05-06 19:26 | 34.48351 | -119.09481 | 19425 ft | 387 kts | 138° |
| 2026-05-06 19:26 | 34.46184 | -119.07563 | 18961 ft | 384 kts | 138° |
| 2026-05-06 19:27 | 34.44027 | -119.05655 | 18463 ft | 383 kts | 139° |
| 2026-05-06 19:27 | 34.41875 | -119.03772 | 17948 ft | 380 kts | 139° |
| 2026-05-06 19:27 | 34.39726 | -119.01910 | 17346 ft | 379 kts | 139° |
| 2026-05-06 19:27 | 34.37589 | -119.00065 | 16831 ft | 375 kts | 139° |
| 2026-05-06 19:28 | 34.35473 | -118.98239 | 16354 ft | 371 kts | 139° |
| 2026-05-06 19:28 | 34.33391 | -118.96436 | 15896 ft | 366 kts | 139° |
| 2026-05-06 19:28 | 34.31361 | -118.94604 | 15451 ft | 362 kts | 138° |
| 2026-05-06 19:28 | 34.29361 | -118.92772 | 14982 ft | 359 kts | 138° |
| 2026-05-06 19:29 | 34.27379 | -118.90963 | 14538 ft | 356 kts | 138° |
| 2026-05-06 19:29 | 34.25413 | -118.89176 | 14213 ft | 348 kts | 138° |
| 2026-05-06 19:29 | 34.23519 | -118.87450 | 14089 ft | 333 kts | 137° |
| 2026-05-06 19:29 | 34.21710 | -118.85788 | 13956 ft | 320 kts | 137° |
| 2026-05-06 19:30 | 34.19984 | -118.84201 | 13647 ft | 314 kts | 137° |
| 2026-05-06 19:30 | 34.18252 | -118.82606 | 13286 ft | 312 kts | 137° |
| 2026-05-06 19:30 | 34.16533 | -118.81036 | 12936 ft | 308 kts | 137° |
| 2026-05-06 19:30 | 34.14877 | -118.79404 | 12593 ft | 307 kts | 132° |
| 2026-05-06 19:31 | 34.13290 | -118.77626 | 12232 ft | 307 kts | 131° |
| 2026-05-06 19:31 | 34.11734 | -118.75874 | 11917 ft | 306 kts | 131° |
| 2026-05-06 19:31 | 34.08629 | -118.72441 | 11244 ft | 303 kts | 133° |
| 2026-05-06 19:32 | 34.07064 | -118.70750 | 10921 ft | 301 kts | 133° |
| 2026-05-06 19:32 | 34.05519 | -118.69058 | 10574 ft | 299 kts | 132° |
| 2026-05-06 19:32 | 34.04026 | -118.67324 | 10267 ft | 295 kts | 126° |
| 2026-05-06 19:32 | 34.03020 | -118.65254 | 10041 ft | 282 kts | 103° |
| 2026-05-06 19:33 | 34.02644 | -118.62970 | 9626 ft | 276 kts | 92° |
| 2026-05-06 19:33 | 34.02441 | -118.60671 | 9298 ft | 276 kts | 91° |
| 2026-05-06 19:33 | 34.02245 | -118.58368 | 8998 ft | 276 kts | 91° |
| 2026-05-06 19:33 | 34.02110 | -118.56832 | 8791 ft | 276 kts | 92° |
| 2026-05-06 19:34 | 34.01920 | -118.54742 | 8518 ft | 275 kts | 92° |
| 2026-05-06 19:34 | 34.01710 | -118.52448 | 8218 ft | 275 kts | 92° |
| 2026-05-06 19:34 | 34.01497 | -118.50161 | 7924 ft | 275 kts | 92° |
| 2026-05-06 19:35 | 34.01285 | -118.47888 | 7611 ft | 274 kts | 92° |
| 2026-05-06 19:35 | 34.01227 | -118.47240 | 7515 ft | 273 kts | 92° |
| 2026-05-06 19:35 | 34.01199 | -118.45262 | 7264 ft | 270 kts | 80° |
| 2026-05-06 19:35 | 34.01505 | -118.43045 | 6959 ft | 268 kts | 75° |
| 2026-05-06 19:36 | 34.01895 | -118.40847 | 6663 ft | 268 kts | 74° |
| 2026-05-06 19:36 | 34.02285 | -118.38648 | 6351 ft | 268 kts | 74° |
| 2026-05-06 19:36 | 34.02672 | -118.36447 | 6074 ft | 267 kts | 75° |
| 2026-05-06 19:36 | 34.03021 | -118.34262 | 5989 ft | 269 kts | 78° |
| 2026-05-06 19:37 | 34.03241 | -118.32039 | 5979 ft | 271 kts | 81° |
| 2026-05-06 19:37 | 34.03369 | -118.30598 | 5980 ft | 270 kts | 79° |
| 2026-05-06 19:37 | 34.03539 | -118.28793 | 5976 ft | 270 kts | 78° |
| 2026-05-06 19:37 | 34.03694 | -118.27307 | 5978 ft | 269 kts | 79° |
| 2026-05-06 19:38 | 34.04022 | -118.24313 | 5976 ft | 270 kts | 79° |
| 2026-05-06 19:38 | 34.04267 | -118.22071 | 5974 ft | 270 kts | 78° |
| 2026-05-06 19:38 | 34.04511 | -118.19888 | 5985 ft | 270 kts | 79° |
| 2026-05-06 19:38 | 34.04727 | -118.17966 | 5977 ft | 270 kts | 79° |
| 2026-05-06 19:39 | 34.04977 | -118.15724 | 5973 ft | 270 kts | 79° |
| 2026-05-06 19:39 | 34.05225 | -118.13485 | 5969 ft | 269 kts | 79° |
| 2026-05-06 19:39 | 34.05473 | -118.11246 | 5983 ft | 269 kts | 79° |
| 2026-05-06 19:39 | 34.05720 | -118.09016 | 5980 ft | 269 kts | 79° |
| 2026-05-06 19:40 | 34.05969 | -118.06773 | 5981 ft | 269 kts | 79° |
| 2026-05-06 19:40 | 34.06215 | -118.04542 | 5978 ft | 269 kts | 79° |
| 2026-05-06 19:40 | 34.06463 | -118.02306 | 5978 ft | 264 kts | 79° |
| 2026-05-06 19:40 | 34.06694 | -118.00184 | 5972 ft | 247 kts | 79° |
| 2026-05-06 19:41 | 34.06911 | -117.98190 | 5976 ft | 239 kts | 79° |
| 2026-05-06 19:41 | 34.07123 | -117.96197 | 5979 ft | 239 kts | 80° |
| 2026-05-06 19:41 | 34.06953 | -117.94194 | 5979 ft | 246 kts | 106° |
| 2026-05-06 19:41 | 34.05999 | -117.92486 | 5981 ft | 250 kts | 135° |
| 2026-05-06 19:42 | 34.04480 | -117.91436 | 5982 ft | 254 kts | 157° |
| 2026-05-06 19:42 | 34.02822 | -117.90816 | 5965 ft | 254 kts | 169° |
| 2026-05-06 19:42 | 34.01099 | -117.91122 | 5975 ft | 253 kts | 206° |
| 2026-05-06 19:42 | 33.99824 | -117.92538 | 5979 ft | 251 kts | 242° |
| 2026-05-06 19:43 | 33.99424 | -117.94540 | 5993 ft | 247 kts | 271° |
| 2026-05-06 19:43 | 33.99457 | -117.96604 | 5985 ft | 247 kts | 273° |
| 2026-05-06 19:43 | 33.99429 | -117.98670 | 5982 ft | 247 kts | 267° |
| 2026-05-06 19:43 | 33.99267 | -118.00731 | 5979 ft | 247 kts | 264° |
| 2026-05-06 19:44 | 33.99045 | -118.02784 | 5980 ft | 247 kts | 264° |
| 2026-05-06 19:44 | 33.98820 | -118.04837 | 5895 ft | 247 kts | 264° |
| 2026-05-06 19:44 | 33.98619 | -118.06888 | 5645 ft | 246 kts | 264° |
| 2026-05-06 19:44 | 33.98414 | -118.08936 | 5310 ft | 246 kts | 264° |
| 2026-05-06 19:45 | 33.98202 | -118.10987 | 4922 ft | 247 kts | 264° |
| 2026-05-06 19:45 | 33.97989 | -118.13042 | 4528 ft | 247 kts | 264° |
| 2026-05-06 19:45 | 33.97783 | -118.15068 | 4170 ft | 239 kts | 263° |
| 2026-05-06 19:45 | 33.97585 | -118.17007 | 3843 ft | 228 kts | 264° |
| 2026-05-06 19:46 | 33.97396 | -118.18849 | 3556 ft | 215 kts | 264° |
| 2026-05-06 19:46 | 33.97220 | -118.20581 | 3305 ft | 201 kts | 263° |
| 2026-05-06 19:46 | 33.97054 | -118.22206 | 3049 ft | 190 kts | 262° |
| 2026-05-06 19:46 | 33.96894 | -118.23762 | 2793 ft | 185 kts | 261° |
| 2026-05-06 19:47 | 33.96738 | -118.25289 | 2552 ft | 181 kts | 260° |
| 2026-05-06 19:47 | 33.96586 | -118.26754 | 2323 ft | 177 kts | 259° |
| 2026-05-06 19:47 | 33.96435 | -118.28218 | 2085 ft | 173 kts | 261° |
| 2026-05-06 19:47 | 33.96291 | -118.29638 | 1862 ft | 169 kts | 259° |
| 2026-05-06 19:48 | 33.96152 | -118.31000 | 1635 ft | 159 kts | 259° |
| 2026-05-06 19:48 | 33.96020 | -118.32282 | 1425 ft | 150 kts | 259° |
| 2026-05-06 19:48 | 33.95895 | -118.33503 | 1213 ft | 142 kts | 260° |
| 2026-05-06 19:48 | 33.95776 | -118.34642 | 1015 ft | 133 kts | 260° |
| 2026-05-06 19:49 | 33.95662 | -118.35732 | 838 ft | 130 kts | 261° |
| 2026-05-06 19:49 | 33.95550 | -118.36805 | 689 ft | 130 kts | 260° |
| 2026-05-06 19:49 | 33.95457 | -118.37871 | 519 ft | 130 kts | 259° |
| 2026-05-06 19:49 | 33.95348 | -118.38832 | 369 ft | 125 kts | 262° |
| 2026-05-06 19:50 | 33.95251 | -118.39838 | 209 ft | 121 kts | 261° |
| 2026-05-06 19:50 | 33.95148 | -118.40834 | 102 ft | 116 kts | 262° |
| 2026-05-06 19:50 | 33.95069 | -118.41606 | 102 ft | 58 kts | 263° |
| 2026-05-06 19:50 | 33.95049 | -118.41783 | 104 ft | 10 kts | 262° |
| 2026-05-06 19:51 | 33.95014 | -118.42031 | 100 ft | 39 kts | 252° |
| 2026-05-06 19:51 | 33.94951 | -118.42177 | 104 ft | 25 kts | 230° |
| 2026-05-06 19:51 | 33.94825 | -118.42282 | 104 ft | 22 kts | 192° |
| 2026-05-06 19:51 | 33.94699 | -118.42271 | 103 ft | 17 kts | 173° |
| 2026-05-06 19:52 | 33.94612 | -118.42234 | 101 ft | 14 kts | 124° |
| 2026-05-06 19:52 | 33.94615 | -118.42119 | 102 ft | 15 kts | 82° |
| 2026-05-06 19:52 | 33.94626 | -118.41983 | 101 ft | 19 kts | 91° |
| 2026-05-06 19:52 | 33.94635 | -118.41835 | 99 ft | 21 kts | 82° |
| 2026-05-06 19:53 | 33.94652 | -118.41664 | 100 ft | 24 kts | 82° |
| 2026-05-06 19:53 | 33.94671 | -118.41482 | 101 ft | 24 kts | 82° |
| 2026-05-06 19:53 | 33.94685 | -118.41328 | 99 ft | 17 kts | 92° |
| 2026-05-06 19:53 | 33.94614 | -118.41268 | 101 ft | 16 kts | 175° |
| 2026-05-06 19:54 | 33.94497 | -118.41254 | 99 ft | 18 kts | 170° |
| 2026-05-06 19:54 | 33.94456 | -118.41179 | 100 ft | 8 kts | 85° |
| 2026-05-06 19:54 | 33.94459 | -118.41153 | 102 ft | 1 kts | 84° |
| 2026-05-06 19:54 | 33.94460 | -118.41140 | 102 ft | 2 kts | 83° |